Time;durP1;ratioP1;P1;durP2;ratioP2;P2;SDS_P1;SDS_P2;PMS_P1;PMS_P2;Temp;Humidity;BMP_temperature;BMP_pressure;BME280_temperature;BME280_humidity;BME280_pressure;Samples;Min_cycle;Max_cycle;Signal;HPM_P1;HPM_P2
2024/01/08 00:00:11;;;;;;;30.10;10.10;;;;;;;-10.79;95.25;101677.34;217892;1288;140742;-80
2024/01/08 00:05:12;;;;;;;30.50;11.30;;;;;;;-10.85;95.35;101680.13;218279;1287;140571;-80
2024/01/08 00:10:12;;;;;;;27.70;11.90;;;;;;;-10.87;95.72;101685.20;217937;1288;142073;-80
2024/01/08 00:15:13;;;;;;;25.00;10.90;;;;;;;-10.93;95.40;101683.62;218488;1288;139719;-80
2024/01/08 00:20:14;;;;;;;32.60;14.00;;;;;;;-10.98;95.87;101686.16;217877;1289;142287;-80
2024/01/08 00:25:14;;;;;;;28.10;12.30;;;;;;;-11.01;95.89;101684.73;218588;1288;96610;-80
2024/01/08 00:30:15;;;;;;;30.30;11.50;;;;;;;-11.01;96.48;101691.04;217772;1288;140943;-80
2024/01/08 00:35:15;;;;;;;30.50;10.60;;;;;;;-10.99;96.45;101691.81;218463;1288;142159;-80
2024/01/08 00:40:16;;;;;;;27.70;10.60;;;;;;;-11.04;96.20;101695.94;217868;1288;139946;-80
2024/01/08 00:45:16;;;;;;;27.80;11.60;;;;;;;-11.12;96.35;101697.20;218436;1288;140604;-80
2024/01/08 00:50:17;;;;;;;28.80;12.80;;;;;;;-11.12;96.86;101699.58;217760;1288;141834;-80
2024/01/08 00:55:18;;;;;;;27.30;11.40;;;;;;;-11.10;97.02;101711.33;218595;1288;96097;-80
2024/01/08 01:00:18;;;;;;;30.10;12.10;;;;;;;-11.14;96.84;101717.70;217988;1288;141764;-80
2024/01/08 01:05:19;;;;;;;28.40;12.20;;;;;;;-11.12;97.22;101724.77;218494;1288;140033;-80
2024/01/08 01:10:19;;;;;;;31.80;13.30;;;;;;;-11.12;97.52;101722.89;217998;1288;140919;-80
2024/01/08 01:15:20;;;;;;;28.90;12.30;;;;;;;-11.10;97.60;101728.61;218278;1288;139911;-80
2024/01/08 01:20:20;;;;;;;25.70;12.50;;;;;;;-11.12;97.19;101736.30;217908;1288;141162;-80
2024/01/08 01:25:21;;;;;;;29.80;12.60;;;;;;;-11.17;97.44;101737.41;218614;1288;96152;-80
2024/01/08 01:30:21;;;;;;;24.30;11.00;;;;;;;-11.19;97.52;101747.58;217909;1288;140502;-80
2024/01/08 01:35:22;;;;;;;21.60;11.50;;;;;;;-11.21;97.69;101764.86;218329;1288;139984;-80
2024/01/08 01:40:22;;;;;;;26.50;11.50;;;;;;;-11.22;97.76;101766.14;217970;1288;140252;-80
2024/01/08 01:45:23;;;;;;;31.60;12.40;;;;;;;-11.27;97.81;101762.29;218522;1288;139757;-80
2024/01/08 01:50:24;;;;;;;28.90;11.60;;;;;;;-11.32;97.65;101765.17;217772;1288;141593;-80
2024/01/08 01:55:25;;;;;;;33.40;11.70;;;;;;;-11.35;97.89;101764.81;218626;1288;95862;-80
2024/01/08 02:00:25;;;;;;;31.40;12.60;;;;;;;-11.38;97.93;101767.21;217959;1288;141030;-80
2024/01/08 02:05:26;;;;;;;28.40;11.10;;;;;;;-11.42;98.27;101766.84;218377;1288;140142;-80
2024/01/08 02:10:27;;;;;;;27.80;11.50;;;;;;;-11.44;98.28;101772.55;217912;1288;140561;-80
2024/01/08 02:15:27;;;;;;;30.30;11.40;;;;;;;-11.47;98.12;101778.87;218452;1288;140467;-80
2024/01/08 02:20:28;;;;;;;35.50;12.80;;;;;;;-11.51;98.15;101780.13;217875;1289;141358;-79
2024/01/08 02:25:31;;;;;;;30.10;10.50;;;;;;;-11.55;98.31;101787.20;218337;1290;96584;-80
2024/01/08 02:30:31;;;;;;;30.80;11.10;;;;;;;-11.62;98.56;101787.69;217794;1290;140485;-80
2024/01/08 02:35:32;;;;;;;29.70;12.20;;;;;;;-11.63;98.47;101783.83;218475;1288;139702;-80
2024/01/08 02:40:32;;;;;;;33.00;13.30;;;;;;;-11.63;98.90;101788.85;217991;1288;141317;-80
2024/01/08 02:45:33;;;;;;;31.30;12.10;;;;;;;-11.66;98.80;101793.61;218502;1289;139892;-79
2024/01/08 02:50:33;;;;;;;24.60;10.10;;;;;;;-11.69;99.01;101800.63;217862;1288;142138;-80
2024/01/08 02:55:33;;;;;;;24.30;10.90;;;;;;;-11.68;99.13;101799.55;218553;1289;95935;-80
2024/01/08 03:00:34;;;;;;;28.20;12.00;;;;;;;-11.71;99.12;101801.03;217919;1288;142829;-80
2024/01/08 03:05:34;;;;;;;28.30;9.50;;;;;;;-11.75;98.91;101800.08;218469;1288;139870;-80
2024/01/08 03:10:35;;;;;;;28.40;12.60;;;;;;;-11.80;99.23;101807.19;217802;1288;140917;-80
2024/01/08 03:15:35;;;;;;;30.20;12.10;;;;;;;-11.81;99.65;101813.69;218490;1288;140086;-80
2024/01/08 03:20:36;;;;;;;25.70;11.60;;;;;;;-11.80;99.83;101817.08;217904;1288;140964;-80
2024/01/08 03:25:36;;;;;;;30.70;10.80;;;;;;;-11.80;99.84;101816.59;218483;1289;96096;-80
2024/01/08 03:30:37;;;;;;;25.40;10.30;;;;;;;-11.79;99.98;101823.87;217965;1288;141744;-80
2024/01/08 03:35:37;;;;;;;27.70;11.30;;;;;;;-11.79;100.00;101827.62;218429;1288;140335;-80
2024/01/08 03:40:37;;;;;;;22.30;10.60;;;;;;;-11.78;99.93;101832.60;217925;1291;142414;-80
2024/01/08 03:45:38;;;;;;;27.70;10.30;;;;;;;-11.80;99.71;101833.55;218514;1291;140496;-80
2024/01/08 03:50:38;;;;;;;27.60;11.80;;;;;;;-11.77;100.00;101841.67;217943;1288;140884;-80
2024/01/08 03:55:39;;;;;;;26.30;10.70;;;;;;;-11.75;100.00;101841.52;218614;1288;96166;-80
2024/01/08 04:00:39;;;;;;;22.60;9.90;;;;;;;-11.74;100.00;101842.27;217927;1288;141158;-80
2024/01/08 04:05:40;;;;;;;24.40;10.60;;;;;;;-11.72;99.93;101848.44;218455;1289;140647;-80
2024/01/08 04:10:40;;;;;;;24.40;11.00;;;;;;;-11.69;100.00;101853.88;217895;1289;143365;-80
2024/01/08 04:15:41;;;;;;;26.30;10.80;;;;;;;-11.65;100.00;101857.83;218483;1288;140267;-80
2024/01/08 04:20:41;;;;;;;24.40;10.40;;;;;;;-11.66;99.90;101868.85;217867;1288;142818;-80
2024/01/08 04:25:41;;;;;;;27.50;9.90;;;;;;;-11.64;100.00;101874.41;218605;1289;96737;-80
2024/01/08 04:30:42;;;;;;;23.50;11.10;;;;;;;-11.62;100.00;101880.88;217973;1288;141711;-80
2024/01/08 04:35:42;;;;;;;23.50;9.40;;;;;;;-11.61;99.89;101884.80;218301;1288;140632;-80
2024/01/08 04:40:43;;;;;;;21.10;11.10;;;;;;;-11.62;99.91;101885.54;217915;1290;140937;-80
2024/01/08 04:45:43;;;;;;;23.30;10.30;;;;;;;-11.62;99.98;101886.02;218457;1289;140694;-80
2024/01/08 04:50:44;;;;;;;28.00;10.90;;;;;;;-11.59;99.97;101891.19;217905;1288;141218;-80
2024/01/08 04:55:44;;;;;;;33.00;11.40;;;;;;;-11.58;99.97;101884.91;218586;1288;96867;-80
2024/01/08 05:00:45;;;;;;;22.80;9.20;;;;;;;-11.54;99.97;101886.40;217899;1290;140917;-80
2024/01/08 05:05:45;;;;;;;24.30;10.60;;;;;;;-11.53;99.92;101883.92;218436;1289;139824;-80
2024/01/08 05:10:45;;;;;;;22.80;9.60;;;;;;;-11.50;99.81;101891.04;217944;1288;140933;-80
2024/01/08 05:15:46;;;;;;;25.60;10.40;;;;;;;-11.48;99.96;101900.11;218450;1288;139712;-80
2024/01/08 05:20:46;;;;;;;25.90;11.30;;;;;;;-11.49;99.61;101904.80;217901;1287;140148;-80
2024/01/08 05:25:47;;;;;;;30.80;10.60;;;;;;;-11.49;99.52;101906.77;218618;1288;96106;-80
2024/01/08 05:30:47;;;;;;;22.70;9.80;;;;;;;-11.49;99.51;101913.02;217898;1288;140588;-80
2024/01/08 05:35:47;;;;;;;25.90;9.30;;;;;;;-11.49;99.47;101913.11;218284;1288;139908;-80
2024/01/08 05:40:49;;;;;;;25.50;10.60;;;;;;;-11.51;99.23;101917.84;217906;1288;139969;-80
2024/01/08 05:45:50;;;;;;;27.80;11.10;;;;;;;-11.53;99.30;101923.63;218438;1288;140010;-80
2024/01/08 05:50:50;;;;;;;34.80;12.10;;;;;;;-11.55;99.55;101933.02;217937;1288;141097;-80
2024/01/08 05:55:51;;;;;;;27.30;11.20;;;;;;;-11.57;99.53;101936.15;218519;1289;108750;-80
2024/01/08 06:00:54;;;;;;;27.80;9.10;;;;;;;-11.56;99.84;101932.89;217789;1288;141525;-81
2024/01/08 06:05:54;;;;;;;19.90;8.40;;;;;;;-11.56;99.72;101932.19;218373;1289;139865;-80
2024/01/08 06:10:55;;;;;;;47.30;17.20;;;;;;;-11.56;99.97;101935.33;217845;1288;141900;-80
2024/01/08 06:15:55;;;;;;;26.20;11.50;;;;;;;-11.56;99.83;101946.58;218260;1289;140454;-80
2024/01/08 06:20:56;;;;;;;34.20;12.00;;;;;;;-11.59;99.83;101949.56;217843;1289;141118;-81
2024/01/08 06:25:56;;;;;;;32.50;11.50;;;;;;;-11.62;99.72;101956.84;218389;1289;107628;-80
2024/01/08 06:30:57;;;;;;;70.90;18.50;;;;;;;-11.65;99.42;101957.99;217694;1288;141592;-81
2024/01/08 06:35:58;;;;;;;45.60;14.70;;;;;;;-11.71;99.31;101975.38;218404;1288;139840;-81
2024/01/08 06:40:58;;;;;;;45.70;17.20;;;;;;;-11.73;99.76;101978.65;217836;1288;141290;-81
2024/01/08 06:45:58;;;;;;;38.90;12.70;;;;;;;-11.71;99.95;101985.85;218350;1289;140004;-81
2024/01/08 06:51:02;;;;;;;29.00;11.70;;;;;;;-11.71;100.00;101989.70;217906;1288;141312;-81
2024/01/08 06:56:03;;;;;;;29.60;10.90;;;;;;;-11.73;99.98;101997.00;218501;1288;106557;-80
2024/01/08 07:01:05;;;;;;;29.10;10.70;;;;;;;-11.75;99.95;102002.38;217827;1288;141392;-80
2024/01/08 07:06:05;;;;;;;28.10;12.40;;;;;;;-11.74;100.00;102009.23;218424;1288;140410;-81
2024/01/08 07:11:05;;;;;;;28.60;11.60;;;;;;;-11.75;99.97;102012.54;217940;1288;141083;-81
2024/01/08 07:16:06;;;;;;;36.70;12.60;;;;;;;-11.76;99.99;102027.33;218428;1288;140836;-81
2024/01/08 07:21:07;;;;;;;31.30;12.30;;;;;;;-11.73;100.00;102029.10;217756;1288;141325;-81
2024/01/08 07:26:08;;;;;;;28.50;12.80;;;;;;;-11.74;100.00;102033.23;218390;1289;141573;-81
2024/01/08 07:31:08;;;;;;;28.60;10.80;;;;;;;-11.77;99.95;102035.80;217851;1288;141976;-81
2024/01/08 07:36:09;;;;;;;32.00;13.40;;;;;;;-11.78;99.98;102031.67;218188;1288;140530;-82
2024/01/08 07:41:12;;;;;;;34.70;12.80;;;;;;;-11.76;99.90;102046.52;217776;1288;141326;-81
2024/01/08 07:46:12;;;;;;;29.50;12.30;;;;;;;-11.79;99.92;102054.98;218337;1288;140024;-81
2024/01/08 07:51:13;;;;;;;26.10;10.00;;;;;;;-11.79;99.80;102064.21;217855;1288;141619;-81
2024/01/08 07:56:13;;;;;;;34.80;11.80;;;;;;;-11.79;99.94;102074.46;218243;1288;140310;-81
2024/01/08 08:01:15;;;;;;;25.20;10.50;;;;;;;-11.75;99.89;102078.22;217947;1288;141511;-81
2024/01/08 08:06:15;;;;;;;25.00;12.80;;;;;;;-11.71;99.54;102079.81;218227;1288;140172;-81
2024/01/08 08:11:16;;;;;;;31.60;12.30;;;;;;;-11.69;99.23;102084.27;217877;1288;141606;-81
2024/01/08 08:16:16;;;;;;;29.40;13.30;;;;;;;-11.67;98.45;102089.16;218300;1287;138808;-81
2024/01/08 08:21:17;;;;;;;26.20;11.60;;;;;;;-11.62;98.18;102097.23;217740;1288;141984;-81
2024/01/08 08:26:18;;;;;;;31.90;11.50;;;;;;;-11.54;97.98;102101.98;218353;1288;140205;-81
2024/01/08 08:31:18;;;;;;;26.40;11.70;;;;;;;-11.44;96.40;102106.79;217919;1288;141165;-80
2024/01/08 08:36:18;;;;;;;35.10;13.70;;;;;;;-11.28;98.26;102111.08;218398;1288;140570;-80
2024/01/08 08:41:19;;;;;;;37.80;14.70;;;;;;;-10.99;98.40;102128.17;217960;1288;140962;-80
2024/01/08 08:46:19;;;;;;;29.90;12.50;;;;;;;-10.79;96.14;102142.23;218310;1288;140285;-81
2024/01/08 08:51:20;;;;;;;27.70;11.30;;;;;;;-10.68;94.89;102158.70;217864;1287;141457;-81
2024/01/08 08:56:20;;;;;;;23.80;9.30;;;;;;;-10.56;93.61;102172.59;218421;1288;141792;-82
2024/01/08 09:01:20;;;;;;;28.80;12.30;;;;;;;-10.53;92.06;102178.41;217911;1288;140809;-82
2024/01/08 09:06:27;;;;;;;29.30;11.50;;;;;;;-10.49;92.54;102184.05;218467;1288;139861;-81
2024/01/08 09:11:28;;;;;;;26.10;10.30;;;;;;;-10.44;92.22;102186.68;217812;1288;140876;-82
2024/01/08 09:16:28;;;;;;;30.70;11.90;;;;;;;-10.40;92.06;102189.41;218320;1288;140514;-83
2024/01/08 09:21:29;;;;;;;31.30;11.70;;;;;;;-10.34;90.72;102198.48;217878;1288;141062;-82
2024/01/08 09:26:29;;;;;;;36.70;14.20;;;;;;;-10.32;89.34;102203.70;218372;1288;140240;-83
2024/01/08 09:31:30;;;;;;;31.80;13.00;;;;;;;-10.22;90.06;102205.88;217981;1288;141411;-82
2024/01/08 09:36:30;;;;;;;57.40;17.90;;;;;;;-9.96;90.14;102199.07;218471;1288;140900;-82
2024/01/08 09:41:30;;;;;;;51.00;16.70;;;;;;;-9.85;87.76;102200.58;217839;1288;140229;-81
2024/01/08 09:46:35;;;;;;;58.60;18.40;;;;;;;-9.74;88.62;102195.18;218080;1288;322769;-81
2024/01/08 09:51:38;;;;;;;43.80;14.30;;;;;;;-9.58;87.95;102203.02;217794;1288;141640;-81
2024/01/08 09:56:38;;;;;;;25.10;11.60;;;;;;;-9.58;87.74;102206.20;218395;1288;140306;-81
2024/01/08 10:01:41;;;;;;;28.40;11.10;;;;;;;-9.58;86.06;102209.41;217963;1289;140611;-81
2024/01/08 10:06:44;;;;;;;25.40;11.30;;;;;;;-9.56;86.61;102220.48;218368;1288;140584;-81
2024/01/08 10:11:45;;;;;;;27.50;11.20;;;;;;;-9.50;87.03;102218.44;217869;1288;140119;-82
2024/01/08 10:16:46;;;;;;;37.00;14.10;;;;;;;-9.46;86.96;102227.88;218243;1288;140167;-82
2024/01/08 10:21:48;;;;;;;28.80;11.90;;;;;;;-9.42;86.80;102230.76;217898;1288;140656;-82
2024/01/08 10:26:49;;;;;;;48.50;14.70;;;;;;;-9.39;86.70;102228.17;218510;1288;140237;-82
2024/01/08 10:31:49;;;;;;;29.90;12.70;;;;;;;-9.36;86.05;102226.50;218056;1289;141276;-82
2024/01/08 10:36:51;;;;;;;24.70;10.20;;;;;;;-9.33;84.68;102229.70;218506;1288;140427;-82
2024/01/08 10:41:52;;;;;;;26.00;11.00;;;;;;;-9.29;85.35;102231.92;217970;1288;141044;-81
2024/01/08 10:46:57;;;;;;;30.90;12.70;;;;;;;-9.24;85.19;102226.38;218326;1288;140342;-82
2024/01/08 10:51:58;;;;;;;32.20;12.80;;;;;;;-9.19;86.05;102216.22;217992;1288;140832;-82
2024/01/08 10:57:03;;;;;;;29.80;12.40;;;;;;;-9.14;86.11;102216.25;218453;1288;140248;-82
2024/01/08 11:02:04;;;;;;;23.30;9.70;;;;;;;-9.09;85.72;102217.29;218125;1287;140814;-81
2024/01/08 11:07:05;;;;;;;29.20;11.40;;;;;;;-9.03;85.67;102221.05;218462;1292;139498;-82
2024/01/08 11:12:10;;;;;;;28.50;10.90;;;;;;;-8.99;85.62;102219.30;217757;1289;141025;-82
2024/01/08 11:17:11;;;;;;;31.10;11.80;;;;;;;-8.92;85.74;102222.13;218316;1289;140961;-81
2024/01/08 11:22:11;;;;;;;31.40;11.40;;;;;;;-8.86;86.04;102223.10;217950;1288;141398;-82
2024/01/08 11:27:14;;;;;;;29.80;10.40;;;;;;;-8.82;86.04;102226.06;218418;1289;140033;-81
2024/01/08 11:32:45;;;;;;;24.60;11.40;;;;;;;-8.78;85.95;102235.38;217964;1288;141532;-82
2024/01/08 11:38:13;;;;;;;24.80;10.70;;;;;;;-8.71;86.56;102235.61;218548;1289;104238;-81
2024/01/08 11:43:14;;;;;;;27.10;11.50;;;;;;;-8.63;86.72;102235.69;217957;1288;140845;-81
2024/01/08 11:48:15;;;;;;;26.70;10.60;;;;;;;-8.59;87.24;102236.95;218524;1288;140891;-82
2024/01/08 11:53:16;;;;;;;24.20;11.00;;;;;;;-8.53;85.87;102246.52;217935;1288;140791;-81
2024/01/08 11:58:17;;;;;;;26.10;11.10;;;;;;;-8.50;85.40;102251.60;218434;1288;140756;-81
2024/01/08 12:03:21;;;;;;;25.90;11.00;;;;;;;-8.50;85.87;102254.18;217998;1288;141430;-82
2024/01/08 12:08:22;;;;;;;23.70;11.20;;;;;;;-8.46;86.45;102255.81;218333;1288;140502;-82
2024/01/08 12:13:22;;;;;;;26.10;10.50;;;;;;;-8.42;86.91;102257.55;218106;1287;140567;-81
2024/01/08 12:18:23;;;;;;;28.30;11.60;;;;;;;-8.39;86.93;102258.14;218508;1287;139813;-81
2024/01/08 12:23:24;;;;;;;30.80;13.50;;;;;;;-8.34;86.26;102260.40;217826;1288;141492;-81
2024/01/08 12:28:28;;;;;;;25.30;9.80;;;;;;;-8.29;87.54;102258.41;218517;1288;140001;-81
2024/01/08 12:33:29;;;;;;;26.40;11.70;;;;;;;-8.26;86.63;102261.95;217924;1288;140499;-81
2024/01/08 12:38:30;;;;;;;21.70;9.10;;;;;;;-8.23;87.33;102266.77;218530;1288;141859;-81
2024/01/08 12:43:30;;;;;;;23.80;10.20;;;;;;;-8.19;86.55;102264.27;217877;1289;140376;-81
2024/01/08 12:48:31;;;;;;;23.90;11.10;;;;;;;-8.18;87.55;102268.91;218402;1289;140041;-81
2024/01/08 12:53:32;;;;;;;24.90;10.80;;;;;;;-8.15;87.97;102271.69;217917;1289;140331;-81
2024/01/08 12:58:32;;;;;;;34.40;11.20;;;;;;;-8.14;87.50;102276.05;218478;1288;140057;-81
2024/01/08 13:03:33;;;;;;;31.10;11.40;;;;;;;-8.12;88.05;102284.64;217935;1288;141052;-81
2024/01/08 13:08:35;;;;;;;39.80;17.60;;;;;;;-8.10;88.05;102289.19;218256;1288;139964;-81
2024/01/08 13:13:36;;;;;;;53.10;18.10;;;;;;;-8.07;87.28;102290.79;217933;1288;140647;-81
2024/01/08 13:18:37;;;;;;;68.30;22.30;;;;;;;-8.07;87.64;102296.95;218516;1288;141416;-81
2024/01/08 13:23:39;;;;;;;30.40;13.10;;;;;;;-8.04;87.92;102306.18;217955;1288;140423;-81
2024/01/08 13:28:40;;;;;;;32.30;12.90;;;;;;;-8.05;87.77;102312.16;218315;1288;140023;-81
2024/01/08 13:33:42;;;;;;;30.10;11.90;;;;;;;-8.04;87.74;102316.48;217968;1288;140315;-81
2024/01/08 13:38:43;;;;;;;71.40;22.20;;;;;;;-8.04;88.20;102329.28;218504;1288;140053;-81
2024/01/08 13:43:43;;;;;;;44.80;15.20;;;;;;;-8.02;88.48;102339.80;218087;1288;139695;-81
2024/01/08 13:48:44;;;;;;;33.70;12.00;;;;;;;-8.02;88.74;102344.24;218438;1288;140781;-81
2024/01/08 13:53:44;;;;;;;29.80;12.10;;;;;;;-8.04;88.76;102358.05;217790;1288;141875;-81
2024/01/08 13:58:45;;;;;;;29.90;13.60;;;;;;;-8.08;88.23;102365.63;218494;1290;139763;-81
2024/01/08 14:03:45;;;;;;;47.50;20.00;;;;;;;-8.09;88.86;102365.34;217979;1288;140360;-81
2024/01/08 14:08:46;;;;;;;33.70;12.60;;;;;;;-8.11;88.31;102374.42;218537;1289;139587;-82
2024/01/08 14:13:47;;;;;;;28.20;12.00;;;;;;;-8.13;88.45;102376.57;217890;1288;141136;-81
2024/01/08 14:18:47;;;;;;;30.30;11.80;;;;;;;-8.15;89.24;102378.20;218443;1288;139580;-81
2024/01/08 14:23:48;;;;;;;28.90;11.80;;;;;;;-8.16;89.10;102378.58;217902;1288;141046;-82
2024/01/08 14:28:48;;;;;;;27.70;12.60;;;;;;;-8.21;89.11;102384.04;218306;1288;140483;-82
2024/01/08 14:33:49;;;;;;;26.90;10.30;;;;;;;-8.25;89.31;102390.27;217853;1288;141306;-82
2024/01/08 14:38:49;;;;;;;23.00;9.00;;;;;;;-8.28;89.07;102396.61;218333;1288;140462;-82
2024/01/08 14:43:50;;;;;;;28.90;11.00;;;;;;;-8.33;89.51;102397.92;217908;1288;140845;-82
2024/01/08 14:48:50;;;;;;;23.60;10.40;;;;;;;-8.37;89.33;102397.15;218511;1288;139706;-82
2024/01/08 14:53:51;;;;;;;24.90;10.00;;;;;;;-8.42;89.27;102393.08;217980;1288;140629;-82
2024/01/08 14:58:52;;;;;;;23.80;11.20;;;;;;;-8.47;89.48;102393.70;218302;1288;140473;-82
2024/01/08 15:03:53;;;;;;;26.30;10.00;;;;;;;-8.53;90.14;102397.75;217813;1288;141332;-81
2024/01/08 15:08:54;;;;;;;25.60;10.80;;;;;;;-8.58;90.24;102401.60;218508;1288;139525;-81
2024/01/08 15:13:55;;;;;;;32.40;12.40;;;;;;;-8.66;90.30;102404.77;217833;1288;140546;-82
2024/01/08 15:18:55;;;;;;;34.80;12.10;;;;;;;-8.69;90.92;102398.27;218345;1289;143258;-81
2024/01/08 15:23:56;;;;;;;27.80;10.60;;;;;;;-8.73;91.12;102402.05;217935;1288;141299;-82
2024/01/08 15:28:56;;;;;;;28.40;10.80;;;;;;;-8.77;91.59;102400.78;218492;1288;140474;-82
2024/01/08 15:33:57;;;;;;;25.30;10.30;;;;;;;-8.80;91.76;102404.98;217739;1289;140247;-82
2024/01/08 15:38:57;;;;;;;25.50;9.70;;;;;;;-8.85;91.71;102402.23;218450;1288;140690;-83
2024/01/08 15:43:58;;;;;;;28.00;10.80;;;;;;;-8.88;91.96;102403.73;217849;1290;141036;-82
2024/01/08 15:48:58;;;;;;;27.10;10.10;;;;;;;-8.92;92.08;102406.39;218354;1289;139467;-82
2024/01/08 15:53:59;;;;;;;29.20;11.10;;;;;;;-8.97;92.05;102404.36;217885;1288;211029;-82
2024/01/08 15:58:59;;;;;;;28.40;10.80;;;;;;;-9.03;92.30;102407.80;218138;1288;139835;-82
2024/01/08 16:04:00;;;;;;;23.40;10.60;;;;;;;-9.07;92.35;102404.08;217764;1288;140692;-82
2024/01/08 16:09:01;;;;;;;33.70;12.60;;;;;;;-9.13;92.48;102417.90;218104;1288;141516;-82
2024/01/08 16:14:01;;;;;;;32.60;11.50;;;;;;;-9.19;92.82;102427.67;217824;1290;141319;-82
2024/01/08 16:19:02;;;;;;;29.30;11.10;;;;;;;-9.24;93.01;102431.73;218511;1288;140518;-81
2024/01/08 16:24:03;;;;;;;30.30;10.50;;;;;;;-9.25;92.84;102442.09;217873;1288;140639;-81
2024/01/08 16:29:03;;;;;;;28.50;12.50;;;;;;;-9.29;93.08;102450.95;218388;1289;140746;-81
2024/01/08 16:34:04;;;;;;;33.00;12.30;;;;;;;-9.32;93.36;102463.80;217804;1288;140857;-81
2024/01/08 16:39:04;;;;;;;37.20;12.20;;;;;;;-9.37;92.71;102464.47;218341;1289;140248;-81
2024/01/08 16:44:06;;;;;;;39.30;14.20;;;;;;;-9.43;92.90;102462.14;217948;1288;140270;-81
2024/01/08 16:49:06;;;;;;;31.20;11.20;;;;;;;-9.48;93.00;102468.52;218387;1291;139408;-80
2024/01/08 16:54:10;;;;;;;36.10;11.80;;;;;;;-9.52;93.05;102477.22;217726;1288;141640;-81
2024/01/08 16:59:10;;;;;;;24.50;9.80;;;;;;;-9.58;92.99;102476.98;218450;1288;139890;-81
2024/01/08 17:04:12;;;;;;;32.80;11.00;;;;;;;-9.65;92.92;102481.77;217916;1288;140839;-80
2024/01/08 17:09:14;;;;;;;30.90;11.60;;;;;;;-9.71;93.12;102486.48;218397;1288;139581;-81
2024/01/08 17:14:15;;;;;;;40.80;15.00;;;;;;;-9.76;93.08;102487.67;217859;1290;140701;-81
2024/01/08 17:19:16;;;;;;;46.50;17.20;;;;;;;-9.80;93.09;102488.59;218550;1288;96034;-81
2024/01/08 17:24:16;;;;;;;40.50;15.80;;;;;;;-9.86;93.31;102493.14;217863;1288;140937;-81
2024/01/08 17:29:17;;;;;;;50.00;17.30;;;;;;;-9.90;93.27;102500.32;218526;1288;139711;-81
2024/01/08 17:34:18;;;;;;;40.90;16.00;;;;;;;-9.95;93.64;102499.50;217671;1288;141083;-80
2024/01/08 17:39:20;;;;;;;42.20;17.80;;;;;;;-10.00;93.49;102501.38;218486;1288;139614;-81
2024/01/08 17:44:20;;;;;;;52.20;16.20;;;;;;;-10.05;93.89;102503.95;217935;1288;140878;-81
2024/01/08 17:49:22;;;;;;;46.90;17.60;;;;;;;-10.08;93.99;102507.58;218490;1288;95932;-81
2024/01/08 17:54:22;;;;;;;59.40;17.80;;;;;;;-10.10;94.22;102512.11;217955;1288;141189;-81
2024/01/08 17:59:22;;;;;;;46.90;14.80;;;;;;;-10.12;94.31;102520.89;218209;1288;140714;-81
2024/01/08 18:04:23;;;;;;;58.50;18.70;;;;;;;-10.14;94.40;102522.65;217822;1288;142240;-82
2024/01/08 18:09:24;;;;;;;55.50;19.30;;;;;;;-10.14;94.20;102529.14;218224;1289;141778;-82
2024/01/08 18:14:27;;;;;;;64.70;19.30;;;;;;;-10.16;94.32;102534.37;217803;1288;141866;-82
2024/01/08 18:19:29;;;;;;;50.00;18.40;;;;;;;-10.18;94.50;102540.66;218283;1292;106662;-82
2024/01/08 18:24:29;;;;;;;53.50;17.90;;;;;;;-10.21;94.85;102543.09;217927;1288;140973;-83
2024/01/08 18:29:30;;;;;;;47.50;16.80;;;;;;;-10.24;94.56;102549.69;218340;1288;141761;-81
2024/01/08 18:34:30;;;;;;;57.10;20.10;;;;;;;-10.28;94.54;102550.96;217817;1288;140960;-81
2024/01/08 18:39:31;;;;;;;71.40;23.20;;;;;;;-10.31;94.47;102556.33;218310;1288;140209;-81
2024/01/08 18:44:31;;;;;;;56.50;19.60;;;;;;;-10.33;94.84;102568.44;217565;1294;141897;-81
2024/01/08 18:49:32;;;;;;;34.70;12.90;;;;;;;-10.35;94.91;102581.40;218343;1292;96127;-81
2024/01/08 18:54:33;;;;;;;44.30;17.40;;;;;;;-10.39;94.85;102584.50;217674;1289;140941;-81
2024/01/08 18:59:33;;;;;;;38.50;13.90;;;;;;;-10.41;94.86;102595.15;218389;1292;140031;-81
2024/01/08 19:04:34;;;;;;;48.40;17.40;;;;;;;-10.45;94.70;102602.56;217742;1289;140944;-81
2024/01/08 19:09:35;;;;;;;48.20;16.60;;;;;;;-10.48;94.99;102612.36;218475;1289;139935;-81
2024/01/08 19:14:36;;;;;;;40.90;16.90;;;;;;;-10.51;95.39;102620.54;217977;1288;140381;-80
2024/01/08 19:19:36;;;;;;;40.30;15.40;;;;;;;-10.52;95.46;102631.09;218435;1289;96002;-80
2024/01/08 19:24:45;;;;;;;47.30;18.80;;;;;;;-10.58;95.22;102632.98;217897;1292;140025;-82
2024/01/08 19:29:45;;;;;;;48.70;17.10;;;;;;;-10.62;95.50;102636.21;218095;1290;141378;-80
2024/01/08 19:34:49;;;;;;;53.40;19.00;;;;;;;-10.63;95.34;102643.98;218033;1288;141248;-81
2024/01/08 19:39:49;;;;;;;55.90;19.50;;;;;;;-10.70;95.51;102641.34;218143;1288;141187;-81
2024/01/08 19:44:49;;;;;;;59.80;19.90;;;;;;;-10.72;95.57;102643.73;218269;1289;140892;-81
2024/01/08 19:49:51;;;;;;;51.90;18.10;;;;;;;-10.77;95.95;102644.27;218195;1289;141248;-81
2024/01/08 19:54:53;;;;;;;45.20;17.80;;;;;;;-10.81;96.25;102642.45;218286;1288;140098;-80
2024/01/08 19:59:54;;;;;;;52.30;19.30;;;;;;;-10.83;96.31;102637.05;217934;1288;142387;-80
2024/01/08 20:04:54;;;;;;;53.80;19.40;;;;;;;-10.90;96.38;102636.52;218462;1288;139760;-80
2024/01/08 20:09:55;;;;;;;62.30;22.00;;;;;;;-10.93;96.47;102640.04;217953;1289;140651;-80
2024/01/08 20:14:55;;;;;;;65.50;20.80;;;;;;;-10.97;96.61;102646.04;218480;1288;139913;-81
2024/01/08 20:19:57;;;;;;;54.30;20.40;;;;;;;-11.00;96.72;102653.67;217728;1288;141846;-80
2024/01/08 20:24:57;;;;;;;60.30;17.40;;;;;;;-11.04;96.69;102659.96;218349;1288;140298;-80
2024/01/08 20:29:58;;;;;;;55.00;19.40;;;;;;;-11.06;96.87;102656.40;217665;1288;141654;-80
2024/01/08 20:34:58;;;;;;;56.90;19.50;;;;;;;-11.09;97.10;102663.40;218413;1287;139825;-81
2024/01/08 20:40:00;;;;;;;53.50;17.90;;;;;;;-11.10;97.26;102658.44;217887;1288;141228;-81
2024/01/08 20:45:02;;;;;;;56.50;18.90;;;;;;;-11.12;97.21;102659.15;218216;1288;139720;-80
2024/01/08 20:50:03;;;;;;;35.20;14.70;;;;;;;-11.15;97.21;102663.67;217968;1289;141370;-80
2024/01/08 20:55:04;;;;;;;46.70;18.70;;;;;;;-11.20;97.25;102674.11;218416;1289;140447;-80
2024/01/08 21:00:05;;;;;;;44.70;17.90;;;;;;;-11.24;97.47;102681.03;217841;1288;140561;-80
2024/01/08 21:05:07;;;;;;;45.40;16.00;;;;;;;-11.30;97.65;102688.63;218389;1288;141441;-81
2024/01/08 21:10:08;;;;;;;53.20;19.30;;;;;;;-11.35;97.67;102680.11;217672;1288;141374;-80
2024/01/08 21:15:10;;;;;;;53.40;21.50;;;;;;;-11.39;97.96;102676.91;218384;1289;140679;-80
2024/01/08 21:20:11;;;;;;;42.40;16.80;;;;;;;-11.39;97.78;102671.10;217984;1288;141377;-80
2024/01/08 21:25:12;;;;;;;52.90;20.10;;;;;;;-11.46;97.94;102680.21;218320;1288;139484;-80
2024/01/08 21:30:20;;;;;;;49.90;18.10;;;;;;;-11.50;98.17;102688.90;217603;1290;141221;-81
2024/01/08 21:35:24;;;;;;;61.10;19.10;;;;;;;-11.57;98.28;102689.75;217925;1291;140024;-82
2024/01/08 21:40:25;;;;;;;49.30;20.00;;;;;;;-11.62;98.71;102692.50;217709;1290;140885;-80
2024/01/08 21:45:26;;;;;;;50.70;17.00;;;;;;;-11.65;98.94;102695.85;217929;1288;383959;-80
2024/01/08 21:50:26;;;;;;;40.70;17.70;;;;;;;-11.69;98.84;102699.86;217827;1287;142068;-81
2024/01/08 21:55:27;;;;;;;39.20;14.00;;;;;;;-11.71;99.06;102696.06;218468;1289;96402;-81
2024/01/08 22:00:28;;;;;;;56.90;19.40;;;;;;;-11.74;99.31;102700.83;217631;1288;141548;-79
2024/01/08 22:05:28;;;;;;;49.30;17.00;;;;;;;-11.75;99.49;102703.75;218212;1288;140563;-80